sensor_id;sensor_type;location;lat;lon;timestamp;temperature;humidity
30893;DHT22;17595;50.884;4.346;2022-10-28T00:02:06;20.50;99.90
30893;DHT22;17595;50.884;4.346;2022-10-28T00:04:31;20.40;99.90
30893;DHT22;17595;50.884;4.346;2022-10-28T00:06:57;20.40;99.90
30893;DHT22;17595;50.884;4.346;2022-10-28T00:09:23;20.40;99.90
30893;DHT22;17595;50.884;4.346;2022-10-28T00:11:48;20.40;99.90
30893;DHT22;17595;50.884;4.346;2022-10-28T00:14:14;20.50;99.90
30893;DHT22;17595;50.884;4.346;2022-10-28T00:16:40;20.50;99.90
30893;DHT22;17595;50.884;4.346;2022-10-28T00:19:06;20.50;99.90
30893;DHT22;17595;50.884;4.346;2022-10-28T00:21:34;20.40;99.90
30893;DHT22;17595;50.884;4.346;2022-10-28T00:24:00;20.40;99.90
30893;DHT22;17595;50.884;4.346;2022-10-28T00:26:28;20.30;99.90
30893;DHT22;17595;50.884;4.346;2022-10-28T00:28:59;20.30;99.90
30893;DHT22;17595;50.884;4.346;2022-10-28T00:31:27;20.30;99.90
30893;DHT22;17595;50.884;4.346;2022-10-28T00:33:53;20.30;99.90
30893;DHT22;17595;50.884;4.346;2022-10-28T00:36:30;20.30;99.90
30893;DHT22;17595;50.884;4.346;2022-10-28T00:38:57;20.30;99.90
30893;DHT22;17595;50.884;4.346;2022-10-28T00:41:29;20.30;99.90
30893;DHT22;17595;50.884;4.346;2022-10-28T00:43:57;20.20;99.90
30893;DHT22;17595;50.884;4.346;2022-10-28T00:46:42;20.20;99.90
30893;DHT22;17595;50.884;4.346;2022-10-28T00:51:45;20.20;99.90
30893;DHT22;17595;50.884;4.346;2022-10-28T00:54:12;20.20;99.90
30893;DHT22;17595;50.884;4.346;2022-10-28T00:56:42;20.20;99.90
30893;DHT22;17595;50.884;4.346;2022-10-28T00:59:17;20.20;99.90
30893;DHT22;17595;50.884;4.346;2022-10-28T01:01:44;20.20;99.90
30893;DHT22;17595;50.884;4.346;2022-10-28T01:04:11;20.20;99.90
30893;DHT22;17595;50.884;4.346;2022-10-28T01:06:36;20.20;99.90
30893;DHT22;17595;50.884;4.346;2022-10-28T01:09:02;20.20;99.90
30893;DHT22;17595;50.884;4.346;2022-10-28T01:12:05;20.20;99.90
30893;DHT22;17595;50.884;4.346;2022-10-28T01:14:44;20.20;99.90
30893;DHT22;17595;50.884;4.346;2022-10-28T01:20:35;20.20;99.90
30893;DHT22;17595;50.884;4.346;2022-10-28T01:23:09;20.10;99.90
30893;DHT22;17595;50.884;4.346;2022-10-28T01:34:02;20.10;99.90
30893;DHT22;17595;50.884;4.346;2022-10-28T01:36:47;20.10;99.90
30893;DHT22;17595;50.884;4.346;2022-10-28T01:47:46;20.10;99.90
30893;DHT22;17595;50.884;4.346;2022-10-28T01:50:22;20.00;99.90
30893;DHT22;17595;50.884;4.346;2022-10-28T01:52:52;20.10;99.90
30893;DHT22;17595;50.884;4.346;2022-10-28T01:55:24;20.00;99.90
30893;DHT22;17595;50.884;4.346;2022-10-28T01:57:53;20.00;99.90
30893;DHT22;17595;50.884;4.346;2022-10-28T02:00:19;20.00;99.90
30893;DHT22;17595;50.884;4.346;2022-10-28T02:02:47;20.00;99.90
30893;DHT22;17595;50.884;4.346;2022-10-28T02:05:53;20.00;99.90
30893;DHT22;17595;50.884;4.346;2022-10-28T02:13:18;20.00;99.90
30893;DHT22;17595;50.884;4.346;2022-10-28T02:15:53;19.90;99.90
30893;DHT22;17595;50.884;4.346;2022-10-28T02:18:39;20.00;99.90
30893;DHT22;17595;50.884;4.346;2022-10-28T02:21:16;20.00;99.90
30893;DHT22;17595;50.884;4.346;2022-10-28T02:24:09;20.00;99.90
30893;DHT22;17595;50.884;4.346;2022-10-28T02:26:42;20.00;99.90
30893;DHT22;17595;50.884;4.346;2022-10-28T02:29:29;19.90;99.90
30893;DHT22;17595;50.884;4.346;2022-10-28T02:32:01;20.00;99.90
30893;DHT22;17595;50.884;4.346;2022-10-28T02:34:35;19.90;99.90
30893;DHT22;17595;50.884;4.346;2022-10-28T02:37:05;19.90;99.90
30893;DHT22;17595;50.884;4.346;2022-10-28T02:39:37;19.90;99.90
30893;DHT22;17595;50.884;4.346;2022-10-28T02:42:25;19.90;99.90
30893;DHT22;17595;50.884;4.346;2022-10-28T02:44:57;19.90;99.90
30893;DHT22;17595;50.884;4.346;2022-10-28T02:47:28;19.90;99.90
30893;DHT22;17595;50.884;4.346;2022-10-28T02:50:00;19.90;99.90
30893;DHT22;17595;50.884;4.346;2022-10-28T02:52:29;20.00;99.90
30893;DHT22;17595;50.884;4.346;2022-10-28T02:54:58;19.90;99.90
30893;DHT22;17595;50.884;4.346;2022-10-28T02:57:31;19.90;99.90
30893;DHT22;17595;50.884;4.346;2022-10-28T03:00:00;19.90;99.90
30893;DHT22;17595;50.884;4.346;2022-10-28T03:02:27;19.90;99.90
30893;DHT22;17595;50.884;4.346;2022-10-28T03:04:52;19.90;99.90
30893;DHT22;17595;50.884;4.346;2022-10-28T03:07:18;19.90;99.90
30893;DHT22;17595;50.884;4.346;2022-10-28T03:09:44;19.90;99.90
30893;DHT22;17595;50.884;4.346;2022-10-28T03:12:10;19.90;99.90
30893;DHT22;17595;50.884;4.346;2022-10-28T03:14:36;20.00;99.90
30893;DHT22;17595;50.884;4.346;2022-10-28T03:17:01;19.90;99.90
30893;DHT22;17595;50.884;4.346;2022-10-28T03:19:27;19.90;99.90
30893;DHT22;17595;50.884;4.346;2022-10-28T03:21:53;19.90;99.90
30893;DHT22;17595;50.884;4.346;2022-10-28T03:24:18;19.90;99.90
30893;DHT22;17595;50.884;4.346;2022-10-28T03:26:44;19.90;99.90
30893;DHT22;17595;50.884;4.346;2022-10-28T03:29:09;19.90;99.90
30893;DHT22;17595;50.884;4.346;2022-10-28T03:31:35;19.90;99.90
30893;DHT22;17595;50.884;4.346;2022-10-28T03:34:00;19.90;99.90
30893;DHT22;17595;50.884;4.346;2022-10-28T03:36:26;19.90;99.90
30893;DHT22;17595;50.884;4.346;2022-10-28T03:38:51;19.90;99.90
30893;DHT22;17595;50.884;4.346;2022-10-28T03:41:17;19.80;99.90
30893;DHT22;17595;50.884;4.346;2022-10-28T03:43:43;19.80;99.90
30893;DHT22;17595;50.884;4.346;2022-10-28T03:46:09;19.80;99.90
30893;DHT22;17595;50.884;4.346;2022-10-28T03:48:34;19.80;99.90
30893;DHT22;17595;50.884;4.346;2022-10-28T03:51:00;19.80;99.90
30893;DHT22;17595;50.884;4.346;2022-10-28T03:53:25;19.80;99.90
30893;DHT22;17595;50.884;4.346;2022-10-28T03:55:55;19.80;99.90
30893;DHT22;17595;50.884;4.346;2022-10-28T03:58:21;19.80;99.90
30893;DHT22;17595;50.884;4.346;2022-10-28T04:00:48;19.80;99.90
30893;DHT22;17595;50.884;4.346;2022-10-28T04:03:15;19.80;99.90
30893;DHT22;17595;50.884;4.346;2022-10-28T04:05:41;19.80;99.90
30893;DHT22;17595;50.884;4.346;2022-10-28T04:08:07;19.70;99.90
30893;DHT22;17595;50.884;4.346;2022-10-28T04:10:33;19.70;99.90
30893;DHT22;17595;50.884;4.346;2022-10-28T04:12:59;19.70;99.90
30893;DHT22;17595;50.884;4.346;2022-10-28T04:15:25;19.70;99.90
30893;DHT22;17595;50.884;4.346;2022-10-28T04:17:51;19.70;99.90
30893;DHT22;17595;50.884;4.346;2022-10-28T04:20:16;19.70;99.90
30893;DHT22;17595;50.884;4.346;2022-10-28T04:22:42;19.70;99.90
30893;DHT22;17595;50.884;4.346;2022-10-28T04:25:08;19.70;99.90
30893;DHT22;17595;50.884;4.346;2022-10-28T04:27:33;19.70;99.90
30893;DHT22;17595;50.884;4.346;2022-10-28T04:29:59;19.70;99.90
30893;DHT22;17595;50.884;4.346;2022-10-28T04:32:24;19.70;99.90
30893;DHT22;17595;50.884;4.346;2022-10-28T04:34:50;19.70;99.90
30893;DHT22;17595;50.884;4.346;2022-10-28T04:37:15;19.70;99.90
30893;DHT22;17595;50.884;4.346;2022-10-28T04:39:41;19.60;99.90
30893;DHT22;17595;50.884;4.346;2022-10-28T04:42:07;19.60;99.90
30893;DHT22;17595;50.884;4.346;2022-10-28T04:44:32;19.60;99.90
30893;DHT22;17595;50.884;4.346;2022-10-28T04:46:58;19.60;99.90
30893;DHT22;17595;50.884;4.346;2022-10-28T04:49:23;19.60;99.90
30893;DHT22;17595;50.884;4.346;2022-10-28T04:51:49;19.60;99.90
30893;DHT22;17595;50.884;4.346;2022-10-28T04:54:14;19.60;99.90
30893;DHT22;17595;50.884;4.346;2022-10-28T04:56:40;19.50;99.90
30893;DHT22;17595;50.884;4.346;2022-10-28T04:59:05;19.60;99.90
30893;DHT22;17595;50.884;4.346;2022-10-28T05:01:31;19.50;99.90
30893;DHT22;17595;50.884;4.346;2022-10-28T05:03:56;19.60;99.90
30893;DHT22;17595;50.884;4.346;2022-10-28T05:06:22;19.60;99.90
30893;DHT22;17595;50.884;4.346;2022-10-28T05:08:48;19.50;99.90
30893;DHT22;17595;50.884;4.346;2022-10-28T05:11:13;19.60;99.90
30893;DHT22;17595;50.884;4.346;2022-10-28T05:13:39;19.50;99.90
30893;DHT22;17595;50.884;4.346;2022-10-28T05:16:05;19.50;99.90
30893;DHT22;17595;50.884;4.346;2022-10-28T05:18:30;19.50;99.90
30893;DHT22;17595;50.884;4.346;2022-10-28T05:20:56;19.50;99.90
30893;DHT22;17595;50.884;4.346;2022-10-28T05:23:22;19.50;99.90
30893;DHT22;17595;50.884;4.346;2022-10-28T05:25:51;19.50;99.90
30893;DHT22;17595;50.884;4.346;2022-10-28T05:28:17;19.50;99.90
30893;DHT22;17595;50.884;4.346;2022-10-28T05:30:43;19.40;99.90
30893;DHT22;17595;50.884;4.346;2022-10-28T05:33:09;19.50;99.90
30893;DHT22;17595;50.884;4.346;2022-10-28T05:35:36;19.40;99.90
30893;DHT22;17595;50.884;4.346;2022-10-28T05:38:02;19.40;99.90
30893;DHT22;17595;50.884;4.346;2022-10-28T05:40:28;19.40;99.90
30893;DHT22;17595;50.884;4.346;2022-10-28T05:42:57;19.50;99.90
30893;DHT22;17595;50.884;4.346;2022-10-28T05:45:22;19.50;99.90
30893;DHT22;17595;50.884;4.346;2022-10-28T05:47:48;19.50;99.90
30893;DHT22;17595;50.884;4.346;2022-10-28T05:50:15;19.50;99.90
30893;DHT22;17595;50.884;4.346;2022-10-28T05:52:49;19.50;99.90
30893;DHT22;17595;50.884;4.346;2022-10-28T05:55:16;19.50;99.90
30893;DHT22;17595;50.884;4.346;2022-10-28T05:57:44;19.50;99.90
30893;DHT22;17595;50.884;4.346;2022-10-28T06:00:10;19.50;99.90
30893;DHT22;17595;50.884;4.346;2022-10-28T06:02:36;19.50;99.90
30893;DHT22;17595;50.884;4.346;2022-10-28T06:05:02;19.50;99.90
30893;DHT22;17595;50.884;4.346;2022-10-28T06:07:28;19.50;99.90
30893;DHT22;17595;50.884;4.346;2022-10-28T06:09:54;19.40;99.90
30893;DHT22;17595;50.884;4.346;2022-10-28T06:12:19;19.40;99.90
30893;DHT22;17595;50.884;4.346;2022-10-28T06:14:45;19.40;99.90
30893;DHT22;17595;50.884;4.346;2022-10-28T06:17:11;19.40;99.90
30893;DHT22;17595;50.884;4.346;2022-10-28T06:19:36;19.50;99.90
30893;DHT22;17595;50.884;4.346;2022-10-28T06:22:02;19.50;99.90
30893;DHT22;17595;50.884;4.346;2022-10-28T06:24:27;19.50;99.90
30893;DHT22;17595;50.884;4.346;2022-10-28T06:26:53;19.50;99.90
30893;DHT22;17595;50.884;4.346;2022-10-28T06:29:18;19.50;99.90
30893;DHT22;17595;50.884;4.346;2022-10-28T06:31:45;19.50;99.90
30893;DHT22;17595;50.884;4.346;2022-10-28T06:34:11;19.60;99.90
30893;DHT22;17595;50.884;4.346;2022-10-28T06:36:37;19.70;99.90
30893;DHT22;17595;50.884;4.346;2022-10-28T06:39:03;19.70;99.90
30893;DHT22;17595;50.884;4.346;2022-10-28T06:41:29;19.70;99.90
30893;DHT22;17595;50.884;4.346;2022-10-28T06:43:54;19.70;99.90
30893;DHT22;17595;50.884;4.346;2022-10-28T06:46:20;19.60;99.90
30893;DHT22;17595;50.884;4.346;2022-10-28T06:48:45;19.70;99.90
30893;DHT22;17595;50.884;4.346;2022-10-28T06:51:11;19.70;99.90
30893;DHT22;17595;50.884;4.346;2022-10-28T06:53:37;19.90;99.90
30893;DHT22;17595;50.884;4.346;2022-10-28T06:56:02;20.00;99.90
30893;DHT22;17595;50.884;4.346;2022-10-28T06:58:28;20.10;99.90
30893;DHT22;17595;50.884;4.346;2022-10-28T07:00:53;20.10;99.90
30893;DHT22;17595;50.884;4.346;2022-10-28T07:03:19;20.00;99.90
30893;DHT22;17595;50.884;4.346;2022-10-28T07:05:46;20.10;99.90
30893;DHT22;17595;50.884;4.346;2022-10-28T07:08:13;20.10;99.90
30893;DHT22;17595;50.884;4.346;2022-10-28T07:10:39;20.20;99.90
30893;DHT22;17595;50.884;4.346;2022-10-28T07:13:05;20.20;99.90
30893;DHT22;17595;50.884;4.346;2022-10-28T07:15:30;20.30;99.90
30893;DHT22;17595;50.884;4.346;2022-10-28T07:17:57;20.40;99.90
30893;DHT22;17595;50.884;4.346;2022-10-28T07:20:24;20.40;99.90
30893;DHT22;17595;50.884;4.346;2022-10-28T07:23:00;20.50;99.90
30893;DHT22;17595;50.884;4.346;2022-10-28T07:25:27;20.40;99.90
30893;DHT22;17595;50.884;4.346;2022-10-28T07:27:55;20.30;99.90
30893;DHT22;17595;50.884;4.346;2022-10-28T07:30:21;20.30;99.90
30893;DHT22;17595;50.884;4.346;2022-10-28T07:32:47;20.30;99.90
30893;DHT22;17595;50.884;4.346;2022-10-28T07:35:12;20.30;99.90
30893;DHT22;17595;50.884;4.346;2022-10-28T07:37:38;20.30;99.90
30893;DHT22;17595;50.884;4.346;2022-10-28T07:40:05;20.30;99.90
30893;DHT22;17595;50.884;4.346;2022-10-28T07:42:32;20.20;99.90
30893;DHT22;17595;50.884;4.346;2022-10-28T07:44:58;20.30;99.90
30893;DHT22;17595;50.884;4.346;2022-10-28T07:47:23;20.30;99.90
30893;DHT22;17595;50.884;4.346;2022-10-28T07:49:49;20.30;99.90
30893;DHT22;17595;50.884;4.346;2022-10-28T07:52:15;20.30;99.90
30893;DHT22;17595;50.884;4.346;2022-10-28T07:54:41;20.50;99.90
30893;DHT22;17595;50.884;4.346;2022-10-28T07:57:06;20.60;99.90
30893;DHT22;17595;50.884;4.346;2022-10-28T07:59:32;20.70;99.90
30893;DHT22;17595;50.884;4.346;2022-10-28T08:01:59;20.80;99.90
30893;DHT22;17595;50.884;4.346;2022-10-28T08:04:24;20.90;99.90
30893;DHT22;17595;50.884;4.346;2022-10-28T08:06:53;20.80;99.90
30893;DHT22;17595;50.884;4.346;2022-10-28T08:09:18;20.90;99.90
30893;DHT22;17595;50.884;4.346;2022-10-28T08:11:44;20.90;99.90
30893;DHT22;17595;50.884;4.346;2022-10-28T08:14:09;20.90;99.90
30893;DHT22;17595;50.884;4.346;2022-10-28T08:16:35;20.90;99.90
30893;DHT22;17595;50.884;4.346;2022-10-28T08:19:00;21.10;99.90
30893;DHT22;17595;50.884;4.346;2022-10-28T08:21:26;21.10;99.90
30893;DHT22;17595;50.884;4.346;2022-10-28T08:23:53;21.00;99.90
30893;DHT22;17595;50.884;4.346;2022-10-28T08:26:19;21.00;99.90
30893;DHT22;17595;50.884;4.346;2022-10-28T08:28:44;21.10;99.90
30893;DHT22;17595;50.884;4.346;2022-10-28T08:31:10;21.00;99.90
30893;DHT22;17595;50.884;4.346;2022-10-28T08:33:41;21.20;99.90
30893;DHT22;17595;50.884;4.346;2022-10-28T08:36:11;21.10;99.90
30893;DHT22;17595;50.884;4.346;2022-10-28T08:38:38;21.00;99.90
30893;DHT22;17595;50.884;4.346;2022-10-28T08:41:18;20.90;99.90
30893;DHT22;17595;50.884;4.346;2022-10-28T08:46:57;20.90;99.90
30893;DHT22;17595;50.884;4.346;2022-10-28T08:49:31;20.80;99.90
30893;DHT22;17595;50.884;4.346;2022-10-28T08:52:01;21.00;99.90
30893;DHT22;17595;50.884;4.346;2022-10-28T08:54:50;21.00;99.90
30893;DHT22;17595;50.884;4.346;2022-10-28T08:57:20;20.90;99.90
30893;DHT22;17595;50.884;4.346;2022-10-28T08:59:49;20.90;99.90
30893;DHT22;17595;50.884;4.346;2022-10-28T09:04:52;20.90;99.90
30893;DHT22;17595;50.884;4.346;2022-10-28T09:07:21;20.90;99.90
30893;DHT22;17595;50.884;4.346;2022-10-28T09:09:49;20.90;99.90
30893;DHT22;17595;50.884;4.346;2022-10-28T09:15:14;21.00;99.90
30893;DHT22;17595;50.884;4.346;2022-10-28T09:20:52;20.90;99.90
30893;DHT22;17595;50.884;4.346;2022-10-28T09:23:46;21.10;99.90
30893;DHT22;17595;50.884;4.346;2022-10-28T09:26:51;21.20;99.90
30893;DHT22;17595;50.884;4.346;2022-10-28T09:29:46;21.20;99.90
30893;DHT22;17595;50.884;4.346;2022-10-28T09:32:42;21.30;99.90
30893;DHT22;17595;50.884;4.346;2022-10-28T09:35:16;21.20;99.90
30893;DHT22;17595;50.884;4.346;2022-10-28T09:37:48;21.30;99.90
30893;DHT22;17595;50.884;4.346;2022-10-28T09:40:23;21.30;99.90
30893;DHT22;17595;50.884;4.346;2022-10-28T09:45:21;21.50;99.90
30893;DHT22;17595;50.884;4.346;2022-10-28T09:47:59;21.50;99.90
30893;DHT22;17595;50.884;4.346;2022-10-28T09:50:29;21.50;99.90
30893;DHT22;17595;50.884;4.346;2022-10-28T09:55:32;21.40;99.90
30893;DHT22;17595;50.884;4.346;2022-10-28T09:57:58;21.60;99.90
30893;DHT22;17595;50.884;4.346;2022-10-28T10:00:24;21.60;99.90
30893;DHT22;17595;50.884;4.346;2022-10-28T10:02:54;21.60;99.90
30893;DHT22;17595;50.884;4.346;2022-10-28T10:05:33;21.60;99.90
30893;DHT22;17595;50.884;4.346;2022-10-28T10:08:04;21.70;99.90
30893;DHT22;17595;50.884;4.346;2022-10-28T10:13:11;21.70;99.90
30893;DHT22;17595;50.884;4.346;2022-10-28T10:15:59;21.80;99.90
30893;DHT22;17595;50.884;4.346;2022-10-28T10:18:29;21.90;99.90
30893;DHT22;17595;50.884;4.346;2022-10-28T10:20:57;21.80;99.90
30893;DHT22;17595;50.884;4.346;2022-10-28T10:23:36;21.80;99.90
30893;DHT22;17595;50.884;4.346;2022-10-28T10:26:03;22.00;99.90
30893;DHT22;17595;50.884;4.346;2022-10-28T10:28:31;22.10;99.90
30893;DHT22;17595;50.884;4.346;2022-10-28T10:31:02;22.20;99.90
30893;DHT22;17595;50.884;4.346;2022-10-28T10:33:52;22.40;99.90
30893;DHT22;17595;50.884;4.346;2022-10-28T10:36:20;22.50;99.90
30893;DHT22;17595;50.884;4.346;2022-10-28T10:38:49;22.60;99.90
30893;DHT22;17595;50.884;4.346;2022-10-28T10:41:37;22.60;99.90
30893;DHT22;17595;50.884;4.346;2022-10-28T10:49:26;22.60;99.90
30893;DHT22;17595;50.884;4.346;2022-10-28T10:51:58;22.60;99.90
30893;DHT22;17595;50.884;4.346;2022-10-28T10:54:28;22.50;99.90
30893;DHT22;17595;50.884;4.346;2022-10-28T10:57:06;22.70;99.90
30893;DHT22;17595;50.884;4.346;2022-10-28T10:59:34;22.80;99.90
30893;DHT22;17595;50.884;4.346;2022-10-28T11:02:03;22.90;99.90
30893;DHT22;17595;50.884;4.346;2022-10-28T11:04:52;23.00;99.90
30893;DHT22;17595;50.884;4.346;2022-10-28T11:07:19;23.10;99.90
30893;DHT22;17595;50.884;4.346;2022-10-28T11:09:49;22.90;99.90
30893;DHT22;17595;50.884;4.346;2022-10-28T11:12:30;22.90;99.90
30893;DHT22;17595;50.884;4.346;2022-10-28T11:15:22;23.00;99.90
30893;DHT22;17595;50.884;4.346;2022-10-28T11:20:45;23.00;99.90
30893;DHT22;17595;50.884;4.346;2022-10-28T11:23:28;22.80;99.90
30893;DHT22;17595;50.884;4.346;2022-10-28T11:26:00;22.90;99.90
30893;DHT22;17595;50.884;4.346;2022-10-28T11:40:06;22.70;99.90
30893;DHT22;17595;50.884;4.346;2022-10-28T11:48:28;23.00;99.90
30893;DHT22;17595;50.884;4.346;2022-10-28T11:51:11;23.10;99.90
30893;DHT22;17595;50.884;4.346;2022-10-28T11:56:36;23.10;99.90
30893;DHT22;17595;50.884;4.346;2022-10-28T12:10:18;23.20;99.90
30893;DHT22;17595;50.884;4.346;2022-10-28T12:13:06;23.50;99.90
30893;DHT22;17595;50.884;4.346;2022-10-28T12:21:01;23.40;99.90
30893;DHT22;17595;50.884;4.346;2022-10-28T12:23:31;23.50;99.90
30893;DHT22;17595;50.884;4.346;2022-10-28T12:25:57;23.50;99.90
30893;DHT22;17595;50.884;4.346;2022-10-28T12:28:32;23.60;99.90
30893;DHT22;17595;50.884;4.346;2022-10-28T12:31:02;23.40;99.90
30893;DHT22;17595;50.884;4.346;2022-10-28T12:41:39;23.50;99.90
30893;DHT22;17595;50.884;4.346;2022-10-28T12:44:11;23.40;99.90
30893;DHT22;17595;50.884;4.346;2022-10-28T12:51:56;23.20;99.90
30893;DHT22;17595;50.884;4.346;2022-10-28T12:54:36;23.30;99.90
30893;DHT22;17595;50.884;4.346;2022-10-28T12:57:13;23.10;99.90
30893;DHT22;17595;50.884;4.346;2022-10-28T12:59:58;23.20;99.90
30893;DHT22;17595;50.884;4.346;2022-10-28T13:02:32;23.20;99.90
30893;DHT22;17595;50.884;4.346;2022-10-28T13:04:59;23.10;99.90
30893;DHT22;17595;50.884;4.346;2022-10-28T13:08:09;23.20;99.90
30893;DHT22;17595;50.884;4.346;2022-10-28T13:14:26;23.40;99.90
30893;DHT22;17595;50.884;4.346;2022-10-28T13:17:09;23.40;99.90
30893;DHT22;17595;50.884;4.346;2022-10-28T13:20:06;23.30;99.90
30893;DHT22;17595;50.884;4.346;2022-10-28T13:22:59;23.40;99.90
30893;DHT22;17595;50.884;4.346;2022-10-28T13:25:44;23.40;99.90
30893;DHT22;17595;50.884;4.346;2022-10-28T13:28:17;23.40;99.90
30893;DHT22;17595;50.884;4.346;2022-10-28T13:30:56;23.20;99.90
30893;DHT22;17595;50.884;4.346;2022-10-28T13:33:23;23.30;99.90
30893;DHT22;17595;50.884;4.346;2022-10-28T13:35:50;23.40;99.90
30893;DHT22;17595;50.884;4.346;2022-10-28T13:38:22;23.40;99.90
30893;DHT22;17595;50.884;4.346;2022-10-28T13:49:29;23.50;99.90
30893;DHT22;17595;50.884;4.346;2022-10-28T13:52:22;23.60;99.90
30893;DHT22;17595;50.884;4.346;2022-10-28T13:57:27;23.40;99.90
30893;DHT22;17595;50.884;4.346;2022-10-28T13:59:58;23.50;99.90
30893;DHT22;17595;50.884;4.346;2022-10-28T14:02:38;23.40;99.90
30893;DHT22;17595;50.884;4.346;2022-10-28T14:05:13;23.40;99.90
30893;DHT22;17595;50.884;4.346;2022-10-28T14:07:58;23.40;99.90
30893;DHT22;17595;50.884;4.346;2022-10-28T14:10:29;23.40;99.90
30893;DHT22;17595;50.884;4.346;2022-10-28T14:13:02;23.50;99.90
30893;DHT22;17595;50.884;4.346;2022-10-28T14:15:39;23.40;99.90
30893;DHT22;17595;50.884;4.346;2022-10-28T14:33:38;23.50;99.90
30893;DHT22;17595;50.884;4.346;2022-10-28T14:44:44;23.40;99.90
30893;DHT22;17595;50.884;4.346;2022-10-28T14:47:54;23.40;99.90
30893;DHT22;17595;50.884;4.346;2022-10-28T14:50:44;23.30;99.90
30893;DHT22;17595;50.884;4.346;2022-10-28T14:53:33;23.30;99.90
30893;DHT22;17595;50.884;4.346;2022-10-28T14:56:08;23.30;99.90
30893;DHT22;17595;50.884;4.346;2022-10-28T14:58:44;23.20;99.90
30893;DHT22;17595;50.884;4.346;2022-10-28T15:04:09;23.10;99.90
30893;DHT22;17595;50.884;4.346;2022-10-28T15:06:43;23.00;99.90
30893;DHT22;17595;50.884;4.346;2022-10-28T15:09:15;23.10;99.90
30893;DHT22;17595;50.884;4.346;2022-10-28T15:11:44;23.00;99.90
30893;DHT22;17595;50.884;4.346;2022-10-28T15:14:34;23.10;99.90
30893;DHT22;17595;50.884;4.346;2022-10-28T15:17:09;23.10;99.90
30893;DHT22;17595;50.884;4.346;2022-10-28T15:19:35;23.10;99.90
30893;DHT22;17595;50.884;4.346;2022-10-28T15:22:06;23.00;99.90
30893;DHT22;17595;50.884;4.346;2022-10-28T15:24:32;22.90;99.90
30893;DHT22;17595;50.884;4.346;2022-10-28T15:26:58;23.00;99.90
30893;DHT22;17595;50.884;4.346;2022-10-28T15:29:24;22.90;99.90
30893;DHT22;17595;50.884;4.346;2022-10-28T15:32:23;22.70;99.90
30893;DHT22;17595;50.884;4.346;2022-10-28T15:34:49;22.70;99.90
30893;DHT22;17595;50.884;4.346;2022-10-28T15:37:27;22.70;99.90
30893;DHT22;17595;50.884;4.346;2022-10-28T15:45:25;22.70;99.90
30893;DHT22;17595;50.884;4.346;2022-10-28T15:47:51;22.70;99.90
30893;DHT22;17595;50.884;4.346;2022-10-28T15:50:22;22.80;99.90
30893;DHT22;17595;50.884;4.346;2022-10-28T15:52:50;22.70;99.90
30893;DHT22;17595;50.884;4.346;2022-10-28T16:08:04;22.60;99.90
30893;DHT22;17595;50.884;4.346;2022-10-28T16:10:34;22.60;99.90
30893;DHT22;17595;50.884;4.346;2022-10-28T16:13:02;22.60;99.90
30893;DHT22;17595;50.884;4.346;2022-10-28T16:15:28;22.70;99.90
30893;DHT22;17595;50.884;4.346;2022-10-28T16:17:54;22.60;99.90
30893;DHT22;17595;50.884;4.346;2022-10-28T16:20:23;22.60;99.90
30893;DHT22;17595;50.884;4.346;2022-10-28T16:22:51;22.50;99.90
30893;DHT22;17595;50.884;4.346;2022-10-28T16:25:19;22.50;99.90
30893;DHT22;17595;50.884;4.346;2022-10-28T16:27:45;22.50;99.90
30893;DHT22;17595;50.884;4.346;2022-10-28T16:30:12;22.50;99.90
30893;DHT22;17595;50.884;4.346;2022-10-28T16:35:23;22.50;99.90
30893;DHT22;17595;50.884;4.346;2022-10-28T16:37:49;22.40;99.90
30893;DHT22;17595;50.884;4.346;2022-10-28T16:40:15;22.40;99.90
30893;DHT22;17595;50.884;4.346;2022-10-28T16:42:41;22.40;99.90
30893;DHT22;17595;50.884;4.346;2022-10-28T16:45:15;22.30;99.90
30893;DHT22;17595;50.884;4.346;2022-10-28T16:47:41;22.30;99.90
30893;DHT22;17595;50.884;4.346;2022-10-28T16:50:07;22.20;99.90
30893;DHT22;17595;50.884;4.346;2022-10-28T16:52:33;22.20;99.90
30893;DHT22;17595;50.884;4.346;2022-10-28T16:54:58;22.10;99.90
30893;DHT22;17595;50.884;4.346;2022-10-28T16:57:25;22.10;99.90
30893;DHT22;17595;50.884;4.346;2022-10-28T16:59:51;22.00;99.90
30893;DHT22;17595;50.884;4.346;2022-10-28T17:02:26;22.00;99.90
30893;DHT22;17595;50.884;4.346;2022-10-28T17:04:52;22.00;99.90
30893;DHT22;17595;50.884;4.346;2022-10-28T17:07:18;22.00;99.90
30893;DHT22;17595;50.884;4.346;2022-10-28T17:09:44;22.00;99.90
30893;DHT22;17595;50.884;4.346;2022-10-28T17:12:14;22.00;99.90
30893;DHT22;17595;50.884;4.346;2022-10-28T17:14:40;22.00;99.90
30893;DHT22;17595;50.884;4.346;2022-10-28T17:17:06;22.00;99.90
30893;DHT22;17595;50.884;4.346;2022-10-28T17:19:31;21.90;99.90
30893;DHT22;17595;50.884;4.346;2022-10-28T17:21:57;21.80;99.90
30893;DHT22;17595;50.884;4.346;2022-10-28T17:24:23;21.80;99.90
30893;DHT22;17595;50.884;4.346;2022-10-28T17:26:48;21.80;99.90
30893;DHT22;17595;50.884;4.346;2022-10-28T17:29:14;21.80;99.90
30893;DHT22;17595;50.884;4.346;2022-10-28T17:31:39;21.90;99.90
30893;DHT22;17595;50.884;4.346;2022-10-28T17:34:05;21.90;99.90
30893;DHT22;17595;50.884;4.346;2022-10-28T17:36:32;21.90;99.90
30893;DHT22;17595;50.884;4.346;2022-10-28T17:38:58;21.90;99.90
30893;DHT22;17595;50.884;4.346;2022-10-28T17:41:23;22.00;99.90
30893;DHT22;17595;50.884;4.346;2022-10-28T17:43:52;22.00;99.90
30893;DHT22;17595;50.884;4.346;2022-10-28T17:46:18;22.10;99.90
30893;DHT22;17595;50.884;4.346;2022-10-28T17:48:44;22.10;99.90
30893;DHT22;17595;50.884;4.346;2022-10-28T17:51:10;22.00;99.90
30893;DHT22;17595;50.884;4.346;2022-10-28T17:53:35;22.00;99.90
30893;DHT22;17595;50.884;4.346;2022-10-28T17:56:03;22.00;99.90
30893;DHT22;17595;50.884;4.346;2022-10-28T17:58:29;22.00;99.90
30893;DHT22;17595;50.884;4.346;2022-10-28T18:00:59;21.90;99.90
30893;DHT22;17595;50.884;4.346;2022-10-28T18:03:25;21.90;99.90
30893;DHT22;17595;50.884;4.346;2022-10-28T18:05:51;21.90;99.90
30893;DHT22;17595;50.884;4.346;2022-10-28T18:08:17;21.90;99.90
30893;DHT22;17595;50.884;4.346;2022-10-28T18:10:55;21.80;99.90
30893;DHT22;17595;50.884;4.346;2022-10-28T18:13:29;21.80;99.90
30893;DHT22;17595;50.884;4.346;2022-10-28T18:15:55;21.90;99.90
30893;DHT22;17595;50.884;4.346;2022-10-28T18:18:24;21.90;99.90
30893;DHT22;17595;50.884;4.346;2022-10-28T18:20:54;21.80;99.90
30893;DHT22;17595;50.884;4.346;2022-10-28T18:23:20;21.80;99.90
30893;DHT22;17595;50.884;4.346;2022-10-28T18:25:45;21.90;99.90
30893;DHT22;17595;50.884;4.346;2022-10-28T18:28:11;21.80;99.90
30893;DHT22;17595;50.884;4.346;2022-10-28T18:30:37;21.80;99.90
30893;DHT22;17595;50.884;4.346;2022-10-28T18:33:02;21.80;99.90
30893;DHT22;17595;50.884;4.346;2022-10-28T18:35:28;21.80;99.90
30893;DHT22;17595;50.884;4.346;2022-10-28T18:37:54;21.80;99.90